Terminal Aerodrome Forecast
Issued by NWS

Home | Current Version | Previous Version | Graphics & Text | Print | Product List | Glossary On
Versions: 1 2 3 4 5 6 7 8 9 10 11 12 13 14 15 16 17 18 19 20
000
FTUS43 KBIS 291100
TAFDIK
TAF
KDIK 291125Z 2912/3012 35013KT P6SM SCT120
     FM291400 34012KT P6SM VCSH SCT030 BKN080
     FM300000 01009KT P6SM SCT080
     FM300600 09005KT P6SM SKC=

USA.gov is the U.S. government's official web portal to all federal, state and local government web resources and services.